createdAt,value
2019-03-09T00:00:56.362Z,9.40
2019-03-09T00:03:25.168Z,9.40
2019-03-09T00:05:53.649Z,9.40
2019-03-09T00:08:22.078Z,9.40
2019-03-09T00:10:50.766Z,9.40
2019-03-09T00:13:19.487Z,9.40
2019-03-09T00:15:48.203Z,9.40
2019-03-09T00:18:16.655Z,9.40
2019-03-09T00:20:45.082Z,9.40
2019-03-09T00:23:20.803Z,9.50
2019-03-09T00:26:08.754Z,9.40
2019-03-09T00:28:55.082Z,9.40
2019-03-09T00:31:37.022Z,9.40
2019-03-09T00:34:05.442Z,9.30
2019-03-09T00:36:33.887Z,9.30
2019-03-09T00:39:02.662Z,9.30
2019-03-09T00:41:31.390Z,9.40
2019-03-09T00:44:00.099Z,9.40
2019-03-09T00:46:28.859Z,9.40
2019-03-09T00:48:57.342Z,9.30
2019-03-09T00:51:25.863Z,9.20
2019-03-09T00:53:54.546Z,9.30
2019-03-09T00:56:22.986Z,9.20
2019-03-09T00:58:51.478Z,9.20
2019-03-09T01:01:19.987Z,9.10
2019-03-09T01:03:48.707Z,9.10
2019-03-09T01:06:17.215Z,9.00
2019-03-09T01:08:45.651Z,9.00
2019-03-09T01:11:14.106Z,8.90
2019-03-09T01:13:42.941Z,8.90
2019-03-09T01:16:11.748Z,8.80
2019-03-09T01:18:40.442Z,8.90
2019-03-09T01:21:08.875Z,8.80
2019-03-09T01:23:37.583Z,8.90
2019-03-09T01:26:06.051Z,8.80
2019-03-09T01:28:34.526Z,8.90
2019-03-09T01:31:03.117Z,8.80
2019-03-09T01:33:31.534Z,8.80
2019-03-09T01:35:59.983Z,8.80
2019-03-09T01:38:28.426Z,8.80
2019-03-09T01:40:56.922Z,8.80
2019-03-09T01:43:25.659Z,8.80
2019-03-09T01:45:54.091Z,8.80
2019-03-09T01:48:22.835Z,8.80
2019-03-09T01:50:51.277Z,8.80
2019-03-09T01:53:20.000Z,8.70
2019-03-09T01:55:48.535Z,8.70
2019-03-09T01:58:16.982Z,8.70
2019-03-09T02:00:45.730Z,8.70
2019-03-09T02:03:14.151Z,8.70
2019-03-09T02:05:42.895Z,8.70
2019-03-09T02:08:11.587Z,8.70
2019-03-09T02:10:40.022Z,8.70
2019-03-09T02:13:08.461Z,8.70
2019-03-09T02:15:37.183Z,8.70
2019-03-09T02:18:05.683Z,8.70
2019-03-09T02:20:34.130Z,8.60
2019-03-09T02:23:02.850Z,8.70
2019-03-09T02:25:31.355Z,8.70
2019-03-09T02:27:59.784Z,8.70
2019-03-09T02:30:28.234Z,8.70
2019-03-09T02:32:56.689Z,8.60
2019-03-09T02:35:25.167Z,8.70
2019-03-09T02:37:53.634Z,8.70
2019-03-09T02:40:24.001Z,8.70
2019-03-09T02:42:52.444Z,8.70
2019-03-09T02:45:24.309Z,8.70
2019-03-09T02:47:52.830Z,8.70
2019-03-09T02:50:21.655Z,8.70
2019-03-09T02:52:50.095Z,8.80
2019-03-09T02:55:18.591Z,8.80
2019-03-09T02:57:47.027Z,8.90
2019-03-09T03:00:18.518Z,8.90
2019-03-09T03:02:48.774Z,8.80
2019-03-09T03:05:17.270Z,8.80
2019-03-09T03:07:46.019Z,8.80
2019-03-09T03:10:14.518Z,8.70
2019-03-09T03:12:42.955Z,8.80
2019-03-09T03:15:14.455Z,8.80
2019-03-09T03:17:42.903Z,8.80
2019-03-09T03:20:11.343Z,8.80
2019-03-09T03:22:40.062Z,8.80
2019-03-09T03:25:08.633Z,8.80
2019-03-09T03:27:37.069Z,8.90
2019-03-09T03:30:07.324Z,8.90
2019-03-09T03:32:36.250Z,8.90
2019-03-09T03:35:06.974Z,8.90
2019-03-09T03:37:35.426Z,9.00
2019-03-09T03:40:08.911Z,9.00
2019-03-09T03:42:37.472Z,9.00
2019-03-09T03:45:08.393Z,9.00
2019-03-09T03:47:36.837Z,8.90
2019-03-09T03:50:06.025Z,8.90
2019-03-09T03:52:34.523Z,9.00
2019-03-09T03:55:02.960Z,9.00
2019-03-09T03:57:31.390Z,9.00
2019-03-09T04:00:00.354Z,9.10
2019-03-09T04:02:28.920Z,9.10
2019-03-09T04:04:57.352Z,9.00
2019-03-09T04:07:25.981Z,9.10
2019-03-09T04:09:54.759Z,9.10
2019-03-09T04:12:23.458Z,9.10
2019-03-09T04:14:52.138Z,9.10
2019-03-09T04:17:20.578Z,9.10
2019-03-09T04:19:48.993Z,9.20
2019-03-09T04:22:17.424Z,9.20
2019-03-09T04:24:46.179Z,9.20
2019-03-09T04:27:14.694Z,9.20
2019-03-09T04:29:43.118Z,9.20
2019-03-09T04:32:11.568Z,9.20
2019-03-09T04:34:39.987Z,9.20
2019-03-09T04:37:08.430Z,9.30
2019-03-09T04:39:36.914Z,9.30
2019-03-09T04:42:05.362Z,9.30
2019-03-09T04:44:34.039Z,9.30
2019-03-09T04:47:02.486Z,9.40
2019-03-09T04:49:30.931Z,9.30
2019-03-09T04:51:59.366Z,9.30
2019-03-09T04:54:27.787Z,9.30
2019-03-09T04:56:56.206Z,9.40
2019-03-09T04:59:24.955Z,9.40
2019-03-09T05:01:53.378Z,9.40
2019-03-09T05:04:27.695Z,9.40
2019-03-09T05:06:56.123Z,9.40
2019-03-09T05:09:27.635Z,9.40
2019-03-09T05:11:56.058Z,9.40
2019-03-09T05:14:24.494Z,9.40
2019-03-09T05:16:52.938Z,9.40
2019-03-09T05:19:21.366Z,9.50
2019-03-09T05:21:49.788Z,9.40
2019-03-09T05:24:18.506Z,9.40
2019-03-09T05:26:47.181Z,9.40
2019-03-09T05:29:15.882Z,9.40
2019-03-09T05:31:44.599Z,9.40
2019-03-09T05:34:13.039Z,9.40
2019-03-09T05:36:41.466Z,9.40
2019-03-09T05:39:09.898Z,9.30
2019-03-09T05:41:38.594Z,9.30
2019-03-09T05:44:07.051Z,9.30
2019-03-09T05:46:35.533Z,9.20
2019-03-09T05:49:03.971Z,9.20
2019-03-09T05:51:32.388Z,9.20
2019-03-09T05:54:00.831Z,9.20
2019-03-09T05:56:29.797Z,9.10
2019-03-09T05:58:58.237Z,9.10
2019-03-09T06:01:26.658Z,9.10
2019-03-09T06:03:55.104Z,9.10
2019-03-09T06:06:23.811Z,9.10
2019-03-09T06:08:52.268Z,9.10
2019-03-09T06:11:20.740Z,9.10
2019-03-09T06:13:49.502Z,9.10
2019-03-09T06:16:17.946Z,9.10
2019-03-09T06:18:46.380Z,9.10
2019-03-09T06:21:14.808Z,9.10
2019-03-09T06:23:43.251Z,9.10
2019-03-09T06:26:11.967Z,9.20
2019-03-09T06:28:40.486Z,9.20
2019-03-09T06:31:09.183Z,9.20
2019-03-09T06:33:37.632Z,9.30
2019-03-09T06:36:11.885Z,9.30
2019-03-09T06:38:51.369Z,9.40
2019-03-09T06:41:34.031Z,9.30
2019-03-09T06:44:02.478Z,9.40
2019-03-09T06:46:30.994Z,9.40
2019-03-09T06:48:59.677Z,9.40
2019-03-09T06:51:28.102Z,9.50
2019-03-09T06:53:56.543Z,9.50
2019-03-09T06:56:24.974Z,9.40
2019-03-09T06:58:53.427Z,9.40
2019-03-09T07:01:24.522Z,9.50
2019-03-09T07:03:53.336Z,9.50
2019-03-09T07:06:22.020Z,9.50
2019-03-09T07:08:50.818Z,9.50
2019-03-09T07:11:19.243Z,9.60
2019-03-09T07:13:52.805Z,9.60
2019-03-09T07:16:17.835Z,9.70
2019-03-09T07:18:46.283Z,9.70
2019-03-09T07:21:14.966Z,9.70
2019-03-09T07:23:43.414Z,9.70
2019-03-09T07:26:11.903Z,9.60
2019-03-09T07:28:40.369Z,9.70
2019-03-09T07:31:08.858Z,9.70
2019-03-09T07:33:37.375Z,9.70
2019-03-09T07:36:05.874Z,9.70
2019-03-09T07:38:34.414Z,9.80
2019-03-09T07:41:02.891Z,9.80
2019-03-09T07:43:31.378Z,9.80
2019-03-09T07:45:59.802Z,9.80
2019-03-09T07:48:28.235Z,9.90
2019-03-09T07:50:56.676Z,9.90
2019-03-09T07:53:25.106Z,9.90
2019-03-09T07:55:53.563Z,9.90
2019-03-09T07:58:22.242Z,10.00
2019-03-09T08:00:51.020Z,10.00
2019-03-09T08:03:19.760Z,10.10
2019-03-09T08:05:48.220Z,10.10
2019-03-09T08:08:16.650Z,10.10
2019-03-09T08:10:45.109Z,10.10
2019-03-09T08:13:13.864Z,10.10
2019-03-09T08:15:42.310Z,10.20
2019-03-09T08:18:11.059Z,10.20
2019-03-09T08:20:39.503Z,10.20
2019-03-09T08:23:07.937Z,10.30
2019-03-09T08:25:36.379Z,10.30
2019-03-09T08:28:08.462Z,10.30
2019-03-09T08:30:54.605Z,10.40
2019-03-09T08:33:51.568Z,10.40
2019-03-09T08:36:20.042Z,10.50
2019-03-09T08:38:48.549Z,10.50
2019-03-09T08:41:17.053Z,10.50
2019-03-09T08:43:45.589Z,10.50
2019-03-09T08:46:14.125Z,10.50
2019-03-09T08:48:42.639Z,10.40
2019-03-09T08:51:11.237Z,10.40
2019-03-09T08:53:39.694Z,10.50
2019-03-09T08:56:08.242Z,10.50
2019-03-09T08:58:36.960Z,10.60
2019-03-09T09:01:05.853Z,10.50
2019-03-09T09:03:34.339Z,10.50
2019-03-09T09:06:02.808Z,10.60
2019-03-09T09:08:31.501Z,10.60
2019-03-09T09:11:00.192Z,10.60
2019-03-09T09:13:28.702Z,10.60
2019-03-09T09:15:57.304Z,10.60
2019-03-09T09:18:25.799Z,10.70
2019-03-09T09:20:54.535Z,10.60
2019-03-09T09:23:22.979Z,10.70
2019-03-09T09:25:51.428Z,10.70
2019-03-09T09:28:19.844Z,10.80
2019-03-09T09:30:48.292Z,10.80
2019-03-09T09:33:17.007Z,10.90
2019-03-09T09:35:45.561Z,10.90
2019-03-09T09:38:14.314Z,10.90
2019-03-09T09:40:43.190Z,11.00
2019-03-09T09:43:11.904Z,11.00
2019-03-09T09:45:40.367Z,11.10
2019-03-09T09:48:08.800Z,11.20
2019-03-09T09:50:37.259Z,11.30
2019-03-09T09:53:05.701Z,11.30
2019-03-09T09:55:34.139Z,11.30
2019-03-09T09:58:02.580Z,11.40
2019-03-09T10:00:31.287Z,11.40
2019-03-09T10:02:59.731Z,11.40
2019-03-09T10:05:28.239Z,11.40
2019-03-09T10:07:56.682Z,11.40
2019-03-09T10:10:25.391Z,11.30
2019-03-09T10:12:55.951Z,11.30
2019-03-09T10:15:26.762Z,11.30
2019-03-09T10:17:55.202Z,11.30
2019-03-09T10:20:24.111Z,11.30
2019-03-09T10:23:03.052Z,11.40
2019-03-09T10:25:23.034Z,11.40
2019-03-09T10:27:51.473Z,11.50
2019-03-09T10:30:26.139Z,11.50
2019-03-09T10:32:54.582Z,11.50
2019-03-09T10:35:23.102Z,11.50
2019-03-09T10:37:51.591Z,11.50
2019-03-09T10:40:20.195Z,11.40
2019-03-09T10:42:48.979Z,11.40
2019-03-09T10:45:18.727Z,11.40
2019-03-09T10:47:47.149Z,11.40
2019-03-09T10:50:19.431Z,11.40
2019-03-09T10:52:47.997Z,11.40
2019-03-09T10:55:28.107Z,11.40
2019-03-09T10:57:56.547Z,11.30
2019-03-09T11:00:27.894Z,11.40
2019-03-09T11:02:56.403Z,11.40
2019-03-09T11:05:24.895Z,11.40
2019-03-09T11:07:53.419Z,11.40
2019-03-09T11:10:21.865Z,11.40
2019-03-09T11:12:50.314Z,11.50
2019-03-09T11:15:18.802Z,11.50
2019-03-09T11:17:47.598Z,11.50
2019-03-09T11:20:21.323Z,11.50
2019-03-09T11:22:49.860Z,11.50
2019-03-09T11:25:18.363Z,11.60
2019-03-09T11:27:47.086Z,11.60
2019-03-09T11:30:28.602Z,11.70
2019-03-09T11:32:57.302Z,11.70
2019-03-09T11:35:25.738Z,11.80
2019-03-09T11:37:54.217Z,11.90
2019-03-09T11:40:22.631Z,11.90
2019-03-09T11:42:51.097Z,11.90
2019-03-09T11:45:20.151Z,12.00
2019-03-09T11:47:48.896Z,12.00
2019-03-09T11:50:17.562Z,12.00
2019-03-09T11:52:46.683Z,12.00
2019-03-09T11:55:16.980Z,12.00
2019-03-09T11:57:45.705Z,12.10
2019-03-09T12:00:20.215Z,12.10
2019-03-09T12:02:48.993Z,12.20
2019-03-09T12:05:17.488Z,12.20
2019-03-09T12:07:45.931Z,12.30
2019-03-09T12:10:14.510Z,12.30
2019-03-09T12:12:42.954Z,12.30
2019-03-09T12:15:13.631Z,12.30
2019-03-09T12:17:42.353Z,12.40
2019-03-09T12:20:12.370Z,12.40
2019-03-09T12:22:40.840Z,12.40
2019-03-09T12:25:11.023Z,12.40
2019-03-09T12:27:39.462Z,12.30
2019-03-09T12:30:11.195Z,12.30
2019-03-09T12:32:39.656Z,12.30
2019-03-09T12:35:09.014Z,12.30
2019-03-09T12:37:37.555Z,12.30
2019-03-09T12:40:11.646Z,12.40
2019-03-09T12:42:40.389Z,12.40
2019-03-09T12:45:10.699Z,12.40
2019-03-09T12:47:39.206Z,12.40
2019-03-09T12:50:13.297Z,12.40
2019-03-09T12:52:41.839Z,12.50
2019-03-09T12:55:10.355Z,12.50
2019-03-09T12:57:39.155Z,12.60
2019-03-09T13:00:13.873Z,12.60
2019-03-09T13:02:42.619Z,12.60
2019-03-09T13:05:11.394Z,12.60
2019-03-09T13:07:40.194Z,12.80
2019-03-09T13:10:09.619Z,12.90
2019-03-09T13:12:38.306Z,12.90
2019-03-09T13:15:08.364Z,12.90
2019-03-09T13:17:36.897Z,12.80
2019-03-09T13:20:08.222Z,12.80
2019-03-09T13:22:36.955Z,12.70
2019-03-09T13:25:08.370Z,12.60
2019-03-09T13:27:36.874Z,12.50
2019-03-09T13:30:13.731Z,12.40
2019-03-09T13:32:42.189Z,12.30
2019-03-09T13:35:10.693Z,12.30
2019-03-09T13:37:39.136Z,12.20
2019-03-09T13:40:10.459Z,12.10
2019-03-09T13:42:38.899Z,12.00
2019-03-09T13:45:12.480Z,11.80
2019-03-09T13:47:40.990Z,11.70
2019-03-09T13:50:11.364Z,11.50
2019-03-09T13:52:39.806Z,11.50
2019-03-09T13:55:09.572Z,11.70
2019-03-09T13:57:38.348Z,11.80
2019-03-09T14:00:15.137Z,11.90
2019-03-09T14:02:43.716Z,12.00
2019-03-09T14:05:12.470Z,12.00
2019-03-09T14:07:41.187Z,12.00
2019-03-09T14:10:14.388Z,12.10
2019-03-09T14:12:43.171Z,12.20
2019-03-09T14:15:15.385Z,12.10
2019-03-09T14:17:43.814Z,12.00
2019-03-09T14:20:15.828Z,11.90
2019-03-09T14:22:44.357Z,11.90
2019-03-09T14:25:16.823Z,11.90
2019-03-09T14:27:45.270Z,11.90
2019-03-09T14:30:18.998Z,11.90
2019-03-09T14:32:47.911Z,12.00
2019-03-09T14:35:16.784Z,11.90
2019-03-09T14:37:45.254Z,11.90
2019-03-09T14:40:16.732Z,11.90
2019-03-09T14:42:45.242Z,11.80
2019-03-09T14:45:23.527Z,11.80
2019-03-09T14:47:51.971Z,12.00
2019-03-09T14:50:20.402Z,12.00
2019-03-09T14:52:49.097Z,12.00
2019-03-09T14:55:17.562Z,12.00
2019-03-09T14:57:45.982Z,11.90
2019-03-09T15:00:17.417Z,11.90
2019-03-09T15:02:45.834Z,11.90
2019-03-09T15:05:14.560Z,11.70
2019-03-09T15:07:43.257Z,11.60
2019-03-09T15:10:12.787Z,11.50
2019-03-09T15:12:41.218Z,11.40
2019-03-09T15:15:18.531Z,11.30
2019-03-09T15:17:47.214Z,11.10
2019-03-09T15:20:16.687Z,11.00
2019-03-09T15:22:45.279Z,10.90
2019-03-09T15:25:17.866Z,10.80
2019-03-09T15:27:46.369Z,10.80
2019-03-09T15:30:20.967Z,10.70
2019-03-09T15:32:49.647Z,10.10
2019-03-09T15:35:18.255Z,9.20
2019-03-09T15:37:46.958Z,8.60
2019-03-09T15:40:18.999Z,8.10
2019-03-09T15:42:47.561Z,7.80
2019-03-09T15:45:16.936Z,7.80
2019-03-09T15:47:45.706Z,7.70
2019-03-09T15:50:15.776Z,7.70
2019-03-09T15:52:44.271Z,7.70
2019-03-09T15:55:13.030Z,7.80
2019-03-09T15:57:41.860Z,7.80
2019-03-09T16:00:24.023Z,7.90
2019-03-09T16:02:52.845Z,7.80
2019-03-09T16:05:21.351Z,7.70
2019-03-09T16:07:49.778Z,7.70
2019-03-09T16:10:20.607Z,7.70
2019-03-09T16:12:49.126Z,7.80
2019-03-09T16:15:18.082Z,7.80
2019-03-09T16:17:46.584Z,7.80
2019-03-09T16:20:20.042Z,7.90
2019-03-09T16:22:48.546Z,7.90
2019-03-09T16:25:16.989Z,8.00
2019-03-09T16:27:45.409Z,8.00
2019-03-09T16:30:19.070Z,8.10
2019-03-09T16:32:47.492Z,8.10
2019-03-09T16:35:15.939Z,8.20
2019-03-09T16:37:45.399Z,8.30
2019-03-09T16:40:19.091Z,8.30
2019-03-09T16:42:47.847Z,8.40
2019-03-09T16:45:16.748Z,8.40
2019-03-09T16:47:45.158Z,8.50
2019-03-09T16:50:15.766Z,8.50
2019-03-09T16:52:44.262Z,8.50
2019-03-09T16:55:12.865Z,8.50
2019-03-09T16:57:41.386Z,8.50
2019-03-09T17:00:21.108Z,8.40
2019-03-09T17:02:49.569Z,8.50
2019-03-09T17:05:18.102Z,8.50
2019-03-09T17:07:46.895Z,8.50
2019-03-09T17:10:18.807Z,8.50
2019-03-09T17:12:46.639Z,8.40
2019-03-09T17:15:20.402Z,8.40
2019-03-09T17:17:48.889Z,8.40
2019-03-09T17:20:17.999Z,8.40
2019-03-09T17:22:46.515Z,8.40
2019-03-09T17:25:15.389Z,8.40
2019-03-09T17:27:43.880Z,8.40
2019-03-09T17:30:17.629Z,8.50
2019-03-09T17:32:46.145Z,8.40
2019-03-09T17:35:14.657Z,8.40
2019-03-09T17:37:43.164Z,8.50
2019-03-09T17:40:18.381Z,8.40
2019-03-09T17:42:47.115Z,8.40
2019-03-09T17:45:23.739Z,8.40
2019-03-09T17:47:52.226Z,8.50
2019-03-09T17:50:20.670Z,8.50
2019-03-09T17:52:49.394Z,8.50
2019-03-09T17:55:18.104Z,8.50
2019-03-09T17:57:46.524Z,8.50
2019-03-09T18:00:23.230Z,8.50
2019-03-09T18:02:51.668Z,8.50
2019-03-09T18:05:20.200Z,8.60
2019-03-09T18:07:48.667Z,8.60
2019-03-09T18:10:28.646Z,8.70
2019-03-09T18:12:57.071Z,8.60
2019-03-09T18:15:25.510Z,8.60
2019-03-09T18:17:54.199Z,8.70
2019-03-09T18:20:22.639Z,8.70
2019-03-09T18:22:51.365Z,8.70
2019-03-09T18:25:19.798Z,8.70
2019-03-09T18:27:48.263Z,8.70
2019-03-09T18:30:16.830Z,8.70
2019-03-09T18:32:45.287Z,8.70
2019-03-09T18:35:14.055Z,8.70
2019-03-09T18:37:42.723Z,8.70
2019-03-09T18:40:15.717Z,8.70
2019-03-09T18:42:44.134Z,8.70
2019-03-09T18:45:20.951Z,8.80
2019-03-09T18:47:49.442Z,8.70
2019-03-09T18:50:17.902Z,8.70
2019-03-09T18:52:46.667Z,8.70
2019-03-09T18:55:15.234Z,8.70
2019-03-09T18:57:43.682Z,8.60
2019-03-09T19:00:15.264Z,8.70
2019-03-09T19:02:43.831Z,8.60
2019-03-09T19:05:12.594Z,8.60
2019-03-09T19:07:41.335Z,8.70
2019-03-09T19:10:12.576Z,8.60
2019-03-09T19:12:41.011Z,8.60
2019-03-09T19:15:14.671Z,8.60
2019-03-09T19:17:43.345Z,8.70
2019-03-09T19:20:14.350Z,8.70
2019-03-09T19:22:42.923Z,8.70
2019-03-09T19:25:13.033Z,8.70
2019-03-09T19:27:41.745Z,8.70
2019-03-09T19:30:13.114Z,8.70
2019-03-09T19:32:41.602Z,8.70
2019-03-09T19:35:10.311Z,8.70
2019-03-09T19:37:38.800Z,8.80
2019-03-09T19:40:10.546Z,8.80
2019-03-09T19:42:39.262Z,8.70
2019-03-09T19:45:10.647Z,8.70
2019-03-09T19:47:39.075Z,8.70
2019-03-09T19:50:12.762Z,8.70
2019-03-09T19:52:41.288Z,8.70
2019-03-09T19:55:10.247Z,8.70
2019-03-09T19:57:38.738Z,8.70
2019-03-09T20:00:15.754Z,8.70
2019-03-09T20:02:44.191Z,8.70
2019-03-09T20:05:13.047Z,8.60
2019-03-09T20:07:41.553Z,8.70
2019-03-09T20:10:15.495Z,8.70
2019-03-09T20:12:44.323Z,8.70
2019-03-09T20:15:17.662Z,8.70
2019-03-09T20:17:46.131Z,8.70
2019-03-09T20:20:18.795Z,8.70
2019-03-09T20:22:47.486Z,8.70
2019-03-09T20:25:16.219Z,8.70
2019-03-09T20:27:44.646Z,8.70
2019-03-09T20:30:18.988Z,8.60
2019-03-09T20:32:47.425Z,8.70
2019-03-09T20:35:16.199Z,8.70
2019-03-09T20:37:45.544Z,8.70
2019-03-09T20:40:15.764Z,8.60
2019-03-09T20:42:44.282Z,8.60
2019-03-09T20:45:20.908Z,8.60
2019-03-09T20:47:49.435Z,8.60
2019-03-09T20:50:18.913Z,8.60
2019-03-09T20:52:47.632Z,8.60
2019-03-09T20:55:16.387Z,8.60
2019-03-09T20:57:45.143Z,8.60
2019-03-09T21:00:18.023Z,8.60
2019-03-09T21:02:46.515Z,8.50
2019-03-09T21:05:14.931Z,8.50
2019-03-09T21:07:43.371Z,8.50
2019-03-09T21:10:16.711Z,8.50
2019-03-09T21:12:59.956Z,8.60
2019-03-09T21:15:28.450Z,8.60
2019-03-09T21:17:57.151Z,8.60
2019-03-09T21:20:25.673Z,8.70
2019-03-09T21:22:54.164Z,8.70
2019-03-09T21:25:22.586Z,8.70
2019-03-09T21:27:51.035Z,8.80
2019-03-09T21:30:19.514Z,8.70
2019-03-09T21:32:48.227Z,8.80
2019-03-09T21:35:17.067Z,8.80
2019-03-09T21:37:45.583Z,8.80
2019-03-09T21:40:14.338Z,8.80
2019-03-09T21:42:42.783Z,8.80
2019-03-09T21:45:13.718Z,8.80
2019-03-09T21:47:42.167Z,8.80
2019-03-09T21:50:13.251Z,8.80
2019-03-09T21:52:41.694Z,8.90
2019-03-09T21:55:12.941Z,8.80
2019-03-09T21:57:41.463Z,8.90
2019-03-09T22:00:20.020Z,8.90
2019-03-09T22:02:50.167Z,8.80
2019-03-09T22:05:18.875Z,8.90
2019-03-09T22:07:47.571Z,8.80
2019-03-09T22:10:16.003Z,8.80
2019-03-09T22:12:44.469Z,8.80
2019-03-09T22:15:15.392Z,8.80
2019-03-09T22:17:43.871Z,8.80
2019-03-09T22:20:13.280Z,8.80
2019-03-09T22:22:42.050Z,8.80
2019-03-09T22:25:11.670Z,8.80
2019-03-09T22:27:40.268Z,8.80
2019-03-09T22:30:18.838Z,8.90
2019-03-09T22:32:47.628Z,8.90
2019-03-09T22:35:16.119Z,8.80
2019-03-09T22:37:44.609Z,8.80
2019-03-09T22:40:15.182Z,8.90
2019-03-09T22:42:43.691Z,8.90
2019-03-09T22:45:14.479Z,8.90
2019-03-09T22:47:43.340Z,8.90
2019-03-09T22:50:20.577Z,9.00
2019-03-09T22:52:49.014Z,8.90
2019-03-09T22:55:17.432Z,9.00
2019-03-09T22:57:45.950Z,8.90
2019-03-09T23:00:19.807Z,8.90
2019-03-09T23:02:48.255Z,8.90
2019-03-09T23:05:16.821Z,8.90
2019-03-09T23:07:45.260Z,8.90
2019-03-09T23:10:15.816Z,8.90
2019-03-09T23:12:44.250Z,8.90
2019-03-09T23:15:14.818Z,8.90
2019-03-09T23:17:43.330Z,8.90
2019-03-09T23:20:13.502Z,8.90
2019-03-09T23:22:41.953Z,8.90
2019-03-09T23:25:11.094Z,8.90
2019-03-09T23:27:39.614Z,8.90
2019-03-09T23:30:16.592Z,8.90
2019-03-09T23:32:45.216Z,8.90
2019-03-09T23:35:13.995Z,8.90
2019-03-09T23:37:42.626Z,8.90
2019-03-09T23:40:13.751Z,8.90
2019-03-09T23:42:42.191Z,8.90
2019-03-09T23:45:16.206Z,8.90
2019-03-09T23:47:44.879Z,8.90
2019-03-09T23:50:15.235Z,8.90
2019-03-09T23:52:43.910Z,8.90
2019-03-09T23:55:21.292Z,8.90
2019-03-09T23:57:43.359Z,8.90
